createdAt,value
2022-09-28T00:01:00.047Z,3.77
2022-09-28T00:03:28.023Z,2.77
2022-09-28T00:06:01.282Z,3.10
2022-09-28T00:08:27.887Z,3.37
2022-09-28T00:10:56.057Z,2.77
2022-09-28T00:13:23.482Z,2.60
2022-09-28T00:16:04.162Z,5.97
2022-09-28T00:18:31.745Z,3.27
2022-09-28T00:21:05.725Z,1.93
2022-09-28T00:23:33.253Z,3.47
2022-09-28T00:26:04.796Z,2.13
2022-09-28T00:28:31.542Z,3.40
2022-09-28T00:30:58.938Z,3.57
2022-09-28T00:33:25.884Z,2.70
2022-09-28T00:35:57.435Z,3.67
2022-09-28T00:38:29.250Z,3.27
2022-09-28T00:40:56.069Z,6.00
2022-09-28T00:43:24.215Z,3.83
2022-09-28T00:46:02.622Z,6.37
2022-09-28T00:48:33.925Z,3.57
2022-09-28T00:51:04.732Z,3.60
2022-09-28T00:53:34.909Z,2.70
2022-09-28T00:56:09.177Z,3.23
2022-09-28T00:58:41.496Z,3.63
2022-09-28T01:01:08.685Z,4.13
2022-09-28T01:03:36.000Z,2.87
2022-09-28T01:06:04.802Z,2.80
2022-09-28T01:08:34.065Z,3.50
2022-09-28T01:11:01.109Z,4.13
2022-09-28T01:13:28.630Z,3.17
2022-09-28T01:16:17.964Z,4.13
2022-09-28T01:19:13.656Z,3.30
2022-09-28T01:21:53.415Z,4.50
2022-09-28T01:25:07.709Z,3.13
2022-09-28T01:27:50.683Z,3.17
2022-09-28T01:30:20.386Z,3.27
2022-09-28T01:33:03.649Z,3.23
2022-09-28T01:35:36.990Z,3.60
2022-09-28T01:38:14.319Z,3.63
2022-09-28T01:40:41.984Z,3.23
2022-09-28T01:43:23.756Z,5.27
2022-09-28T01:46:00.188Z,4.00
2022-09-28T01:48:35.790Z,3.20
2022-09-28T01:51:08.113Z,3.63
2022-09-28T01:53:41.508Z,3.13
2022-09-28T01:56:17.711Z,3.40
2022-09-28T01:59:02.720Z,3.10
2022-09-28T02:01:45.104Z,3.03
2022-09-28T02:04:16.945Z,2.90
2022-09-28T02:06:48.947Z,2.93
2022-09-28T02:09:24.468Z,2.60
2022-09-28T02:11:58.989Z,3.73
2022-09-28T02:14:28.375Z,2.40
2022-09-28T02:16:56.259Z,4.70
2022-09-28T02:19:25.895Z,3.63
2022-09-28T02:22:24.945Z,3.27
2022-09-28T02:25:25.443Z,2.90
2022-09-28T02:28:01.950Z,3.13
2022-09-28T02:30:33.701Z,3.30
2022-09-28T02:33:07.510Z,3.57
2022-09-28T02:35:35.281Z,3.63
2022-09-28T02:38:02.044Z,3.70
2022-09-28T02:40:32.323Z,5.90
2022-09-28T02:43:23.850Z,4.27
2022-09-28T02:46:14.089Z,4.33
2022-09-28T02:49:19.918Z,3.70
2022-09-28T02:52:09.145Z,5.87
2022-09-28T02:54:58.205Z,4.37
2022-09-28T02:57:48.589Z,5.73
2022-09-28T03:00:19.095Z,4.03
2022-09-28T03:03:18.936Z,4.40
2022-09-28T03:06:20.062Z,4.57
2022-09-28T03:09:00.514Z,5.07
2022-09-28T03:11:49.285Z,6.07
2022-09-28T03:14:17.008Z,4.17
2022-09-28T03:16:44.760Z,4.00
2022-09-28T03:19:13.336Z,4.63
2022-09-28T03:21:40.193Z,3.93
2022-09-28T03:24:07.023Z,4.57
2022-09-28T03:26:33.602Z,4.50
2022-09-28T03:29:00.216Z,4.80
2022-09-28T03:31:26.799Z,6.17
2022-09-28T03:33:53.441Z,5.53
2022-09-28T03:36:19.994Z,4.93
2022-09-28T03:38:46.574Z,5.37
2022-09-28T03:41:13.256Z,4.70
2022-09-28T03:43:40.036Z,7.10
2022-09-28T03:46:08.023Z,5.20
2022-09-28T03:48:36.275Z,5.77
2022-09-28T03:51:09.214Z,7.13
2022-09-28T03:53:36.748Z,5.07
2022-09-28T03:56:05.989Z,6.40
2022-09-28T03:58:32.775Z,6.03
2022-09-28T04:01:05.063Z,7.77
2022-09-28T04:03:31.980Z,5.57
2022-09-28T04:05:58.972Z,7.83
2022-09-28T04:08:25.665Z,6.43
2022-09-28T04:10:52.372Z,5.30
2022-09-28T04:13:18.979Z,8.17
2022-09-28T04:15:53.806Z,5.03
2022-09-28T04:18:20.729Z,6.17
2022-09-28T04:20:48.301Z,5.57
2022-09-28T04:23:17.758Z,5.43
2022-09-28T04:25:48.612Z,5.10
2022-09-28T04:28:34.458Z,8.00
2022-09-28T04:31:01.020Z,8.07
2022-09-28T04:33:28.108Z,9.40
2022-09-28T04:35:54.703Z,7.17
2022-09-28T04:38:35.794Z,6.17
2022-09-28T04:41:08.454Z,6.77
2022-09-28T04:43:35.141Z,6.70
2022-09-28T04:46:02.981Z,9.00
2022-09-28T04:48:29.726Z,6.00
2022-09-28T04:50:58.670Z,7.23
2022-09-28T04:53:26.582Z,6.43
2022-09-28T04:55:57.210Z,8.17
2022-09-28T04:58:23.965Z,6.50
2022-09-28T05:00:51.404Z,7.87
2022-09-28T05:03:18.343Z,7.63
2022-09-28T05:05:45.597Z,7.37
2022-09-28T05:08:12.219Z,7.00
2022-09-28T05:10:41.660Z,6.47
2022-09-28T05:13:09.532Z,7.73
2022-09-28T05:15:40.394Z,7.33
2022-09-28T05:18:07.860Z,9.87
2022-09-28T05:20:40.364Z,8.83
2022-09-28T05:23:09.932Z,8.33
2022-09-28T05:25:36.495Z,8.57
2022-09-28T05:28:03.458Z,6.97
2022-09-28T05:30:30.245Z,6.50
2022-09-28T05:32:56.888Z,6.50
2022-09-28T05:35:23.503Z,7.00
2022-09-28T05:37:50.165Z,7.93
2022-09-28T05:40:17.054Z,8.10
2022-09-28T05:42:43.786Z,7.33
2022-09-28T05:45:10.794Z,7.87
2022-09-28T05:47:39.230Z,9.53
2022-09-28T05:50:11.752Z,8.33
2022-09-28T05:52:41.200Z,8.27
2022-09-28T05:55:08.453Z,9.10
2022-09-28T05:57:34.968Z,10.80
2022-09-28T06:00:02.387Z,7.60
2022-09-28T06:02:29.018Z,11.53
2022-09-28T06:04:55.688Z,7.77
2022-09-28T06:07:23.367Z,6.70
2022-09-28T06:09:50.058Z,7.80
2022-09-28T06:12:16.678Z,8.77
2022-09-28T06:14:44.049Z,9.63
2022-09-28T06:17:10.653Z,6.97
2022-09-28T06:19:37.213Z,8.33
2022-09-28T06:22:03.853Z,7.50
2022-09-28T06:24:30.405Z,8.27
2022-09-28T06:26:57.025Z,8.00
2022-09-28T06:29:23.658Z,8.77
2022-09-28T06:31:51.325Z,7.53
2022-09-28T06:34:18.971Z,9.20
2022-09-28T06:36:45.826Z,7.40
2022-09-28T06:39:12.362Z,6.87
2022-09-28T06:41:39.939Z,7.20
2022-09-28T06:44:06.515Z,7.37
2022-09-28T06:46:33.213Z,6.73
2022-09-28T06:48:59.820Z,6.00
2022-09-28T06:51:26.430Z,5.97
2022-09-28T06:53:53.913Z,6.57
2022-09-28T06:56:21.019Z,9.67
2022-09-28T06:58:48.229Z,9.67
2022-09-28T07:01:14.895Z,7.97
2022-09-28T07:03:41.567Z,9.50
2022-09-28T07:06:11.525Z,10.07
2022-09-28T07:08:38.508Z,9.63
2022-09-28T07:11:07.000Z,9.87
2022-09-28T07:13:49.517Z,9.57
2022-09-28T07:16:16.830Z,10.90
2022-09-28T07:18:43.407Z,10.87
2022-09-28T07:21:18.872Z,8.67
2022-09-28T07:23:53.809Z,14.47
2022-09-28T07:26:24.147Z,10.77
2022-09-28T07:28:51.082Z,9.40
2022-09-28T07:31:17.832Z,10.50
2022-09-28T07:33:44.757Z,11.40
2022-09-28T07:36:11.355Z,9.07
2022-09-28T07:38:38.234Z,12.47
2022-09-28T07:41:16.787Z,9.07
2022-09-28T07:43:43.456Z,10.37
2022-09-28T07:46:13.383Z,9.70
2022-09-28T07:48:41.831Z,9.97
2022-09-28T07:51:09.119Z,11.23
2022-09-28T07:53:36.273Z,12.97
2022-09-28T07:56:05.735Z,10.80
2022-09-28T07:58:33.308Z,11.83
2022-09-28T08:01:05.167Z,10.10
2022-09-28T08:03:31.901Z,9.73
2022-09-28T08:06:00.299Z,11.17
2022-09-28T08:08:27.624Z,9.87
2022-09-28T08:13:27.140Z,11.37
2022-09-28T08:15:54.389Z,10.63
2022-09-28T08:18:21.537Z,11.80
2022-09-28T08:21:09.985Z,9.93
2022-09-28T08:23:38.246Z,10.80
2022-09-28T08:26:05.957Z,9.37
2022-09-28T08:28:32.545Z,8.27
2022-09-28T08:31:01.667Z,8.67
2022-09-28T08:33:28.639Z,9.20
2022-09-28T08:35:57.730Z,8.73
2022-09-28T08:38:29.486Z,16.43
2022-09-28T08:41:29.362Z,10.07
2022-09-28T08:44:11.134Z,7.37
2022-09-28T08:46:46.627Z,12.53
2022-09-28T08:49:30.807Z,8.43
2022-09-28T08:52:17.562Z,7.67
2022-09-28T08:54:59.130Z,6.93
2022-09-28T08:57:47.673Z,6.37
2022-09-28T09:00:27.074Z,6.37
2022-09-28T09:02:53.811Z,7.13
2022-09-28T09:05:25.624Z,7.37
2022-09-28T09:08:15.579Z,8.70
2022-09-28T09:10:50.506Z,6.40
2022-09-28T09:13:42.299Z,7.23
2022-09-28T09:16:34.162Z,6.27
2022-09-28T09:19:17.036Z,6.20
2022-09-28T09:22:01.932Z,6.80
2022-09-28T09:24:41.935Z,8.93
2022-09-28T09:27:33.563Z,6.13
2022-09-28T09:30:13.023Z,6.40
2022-09-28T09:33:00.293Z,6.40
2022-09-28T09:35:55.212Z,6.37
2022-09-28T09:38:36.099Z,8.17
2022-09-28T09:41:09.898Z,5.83
2022-09-28T09:43:47.361Z,5.10
2022-09-28T09:46:25.290Z,5.37
2022-09-28T09:49:14.306Z,5.23
2022-09-28T09:51:59.490Z,7.03
2022-09-28T09:54:44.398Z,8.37
2022-09-28T09:57:19.351Z,4.90
2022-09-28T09:59:47.342Z,6.00
2022-09-28T10:02:29.585Z,7.53
2022-09-28T10:05:20.199Z,5.73
2022-09-28T10:07:55.812Z,5.47
2022-09-28T10:10:29.673Z,5.17
2022-09-28T10:12:56.733Z,5.17
2022-09-28T10:15:27.089Z,5.17
2022-09-28T10:17:56.206Z,5.33
2022-09-28T10:20:23.514Z,4.73
2022-09-28T10:22:52.093Z,3.73
2022-09-28T10:25:19.862Z,6.57
2022-09-28T10:27:51.350Z,4.60
2022-09-28T10:30:23.428Z,4.07
2022-09-28T10:32:53.594Z,3.97
2022-09-28T10:35:28.071Z,3.80
2022-09-28T10:37:59.605Z,5.10
2022-09-28T10:40:30.697Z,3.37
2022-09-28T10:43:02.185Z,4.13
2022-09-28T10:45:36.302Z,4.73
2022-09-28T10:48:15.043Z,4.63
2022-09-28T10:50:42.818Z,6.33
2022-09-28T10:53:20.465Z,3.30
2022-09-28T10:56:05.387Z,3.27
2022-09-28T10:58:42.762Z,4.53
2022-09-28T11:01:18.539Z,2.93
2022-09-28T11:04:00.996Z,4.53
2022-09-28T11:06:31.303Z,4.70
2022-09-28T11:09:01.321Z,2.60
2022-09-28T11:11:29.542Z,3.57
2022-09-28T11:14:01.036Z,3.20
2022-09-28T11:16:30.128Z,4.97
2022-09-28T11:18:59.179Z,4.07
2022-09-28T11:21:28.806Z,2.47
2022-09-28T11:24:07.900Z,4.13
2022-09-28T11:26:42.608Z,3.67
2022-09-28T11:29:26.789Z,3.13
2022-09-28T11:31:53.610Z,2.33
2022-09-28T11:34:41.816Z,3.87
2022-09-28T11:37:37.770Z,1.70
2022-09-28T11:40:23.901Z,2.67
2022-09-28T11:43:24.759Z,2.60
2022-09-28T11:46:01.286Z,1.80
2022-09-28T11:48:39.387Z,3.53
2022-09-28T11:51:14.701Z,3.10
2022-09-28T11:53:50.634Z,3.10
2022-09-28T11:56:23.502Z,5.27
2022-09-28T11:58:55.165Z,2.23
2022-09-28T12:01:38.763Z,2.33
2022-09-28T12:04:21.552Z,2.47
2022-09-28T12:06:53.197Z,2.83
2022-09-28T12:09:36.020Z,2.37
2022-09-28T12:12:10.409Z,4.03
2022-09-28T12:14:40.086Z,3.07
2022-09-28T12:17:21.114Z,4.50
2022-09-28T12:20:01.399Z,3.20
2022-09-28T12:23:06.849Z,2.70
2022-09-28T12:25:40.809Z,1.50
2022-09-28T12:28:20.411Z,1.73
2022-09-28T12:30:48.710Z,2.40
2022-09-28T12:33:15.727Z,4.00
2022-09-28T12:36:14.834Z,2.30
2022-09-28T12:39:18.003Z,1.80
2022-09-28T12:42:14.864Z,1.60
2022-09-28T12:45:20.956Z,3.43
2022-09-28T12:48:10.421Z,2.77
2022-09-28T12:51:00.816Z,1.93
2022-09-28T12:53:53.145Z,2.07
2022-09-28T12:56:45.613Z,1.90
2022-09-28T12:59:30.817Z,3.93
2022-09-28T13:02:26.765Z,2.50
2022-09-28T13:05:30.597Z,3.63
2022-09-28T13:08:22.192Z,2.13
2022-09-28T13:11:07.673Z,3.27
2022-09-28T13:13:48.711Z,1.63
2022-09-28T13:16:33.671Z,4.97
2022-09-28T13:19:42.751Z,1.33
2022-09-28T13:22:42.183Z,1.67
2022-09-28T13:25:20.730Z,1.60
2022-09-28T13:27:58.418Z,2.57
2022-09-28T13:30:25.731Z,1.20
2022-09-28T13:32:58.331Z,1.53
2022-09-28T13:35:25.458Z,2.30
2022-09-28T13:38:23.204Z,2.83
2022-09-28T13:41:05.054Z,1.70
2022-09-28T13:43:54.233Z,1.50
2022-09-28T13:46:28.239Z,1.43
2022-09-28T13:49:22.797Z,3.27
2022-09-28T13:52:27.245Z,1.40
2022-09-28T13:55:03.862Z,3.47
2022-09-28T13:57:49.922Z,2.40
2022-09-28T14:00:38.362Z,1.33
2022-09-28T14:03:40.975Z,2.23
2022-09-28T14:06:28.004Z,3.30
2022-09-28T14:09:15.766Z,1.60
2022-09-28T14:11:53.965Z,1.70
2022-09-28T14:14:50.121Z,1.73
2022-09-28T14:17:19.499Z,2.67
2022-09-28T14:19:56.310Z,3.57
2022-09-28T14:22:50.199Z,3.50
2022-09-28T14:25:25.353Z,1.23
2022-09-28T14:28:29.698Z,2.50
2022-09-28T14:30:58.751Z,2.27
2022-09-28T14:33:28.759Z,2.30
2022-09-28T14:36:02.219Z,2.50
2022-09-28T14:39:02.866Z,2.53
2022-09-28T14:41:40.037Z,4.03
2022-09-28T14:44:12.112Z,2.87
2022-09-28T14:46:44.087Z,2.93
2022-09-28T14:49:19.727Z,3.63
2022-09-28T14:51:55.857Z,1.80
2022-09-28T14:54:25.489Z,2.00
2022-09-28T14:56:52.038Z,2.17
2022-09-28T14:59:35.946Z,3.97
2022-09-28T15:02:16.931Z,1.90
2022-09-28T15:05:18.128Z,3.53
2022-09-28T15:07:51.600Z,3.77
2022-09-28T15:10:31.245Z,1.60
2022-09-28T15:13:01.255Z,2.77
2022-09-28T15:15:35.048Z,1.63
2022-09-28T15:18:27.473Z,2.53
2022-09-28T15:20:55.647Z,2.00
2022-09-28T15:23:36.897Z,1.80
2022-09-28T15:26:08.424Z,2.90
2022-09-28T15:28:36.668Z,2.93
2022-09-28T15:31:05.231Z,4.60
2022-09-28T15:33:53.882Z,2.20
2022-09-28T15:36:25.775Z,4.63
2022-09-28T15:39:03.393Z,2.93
2022-09-28T15:41:31.111Z,2.63
2022-09-28T15:44:12.720Z,4.50
2022-09-28T15:46:42.451Z,5.67
2022-09-28T15:49:25.560Z,3.30
2022-09-28T15:51:55.978Z,2.87
2022-09-28T15:54:38.856Z,2.50
2022-09-28T15:57:05.449Z,2.67
2022-09-28T15:59:34.778Z,4.60
2022-09-28T16:02:09.781Z,2.60
2022-09-28T16:04:41.711Z,2.30
2022-09-28T16:07:23.105Z,3.20
2022-09-28T16:10:25.478Z,3.40
2022-09-28T16:12:57.161Z,2.00
2022-09-28T16:15:27.618Z,2.03
2022-09-28T16:17:56.550Z,3.50
2022-09-28T16:20:42.431Z,2.83
2022-09-28T16:23:28.322Z,3.70
2022-09-28T16:26:01.154Z,3.60
2022-09-28T16:28:34.674Z,3.87
2022-09-28T16:31:05.600Z,2.80
2022-09-28T16:33:46.702Z,5.73
2022-09-28T16:36:15.703Z,6.10
2022-09-28T16:38:46.014Z,4.57
2022-09-28T16:41:14.191Z,4.40
2022-09-28T16:43:40.883Z,3.00
2022-09-28T16:46:12.728Z,4.83
2022-09-28T16:48:50.214Z,4.13
2022-09-28T16:51:18.211Z,6.47
2022-09-28T16:54:04.105Z,2.80
2022-09-28T16:56:32.613Z,6.57
2022-09-28T16:58:59.455Z,4.00
2022-09-28T17:01:26.116Z,3.47
2022-09-28T17:03:52.778Z,5.10
2022-09-28T17:06:22.191Z,6.03
2022-09-28T17:08:48.764Z,3.57
2022-09-28T17:11:24.184Z,3.77
2022-09-28T17:13:51.740Z,4.90
2022-09-28T17:16:32.609Z,5.83
2022-09-28T17:19:19.967Z,3.30
2022-09-28T17:21:47.131Z,5.07
2022-09-28T17:24:13.811Z,5.17
2022-09-28T17:26:43.708Z,6.43
2022-09-28T17:29:14.453Z,6.00
2022-09-28T17:31:45.698Z,4.90
2022-09-28T17:34:15.163Z,4.40
2022-09-28T17:36:42.892Z,9.30
2022-09-28T17:39:15.825Z,11.47
2022-09-28T17:41:42.475Z,9.37
2022-09-28T17:44:09.135Z,7.80
2022-09-28T17:46:48.839Z,8.13
2022-09-28T17:49:16.616Z,6.43
2022-09-28T17:51:43.332Z,6.47
2022-09-28T17:54:10.211Z,5.03
2022-09-28T17:56:36.926Z,4.70
2022-09-28T17:59:10.676Z,4.53
2022-09-28T18:01:39.649Z,5.77
2022-09-28T18:04:08.703Z,5.30
2022-09-28T18:06:37.058Z,5.27
2022-09-28T18:09:04.954Z,4.83
2022-09-28T18:11:33.579Z,5.03
2022-09-28T18:14:00.573Z,7.07
2022-09-28T18:16:28.687Z,6.93
2022-09-28T18:18:55.674Z,7.77
2022-09-28T18:21:22.519Z,4.77
2022-09-28T18:23:49.185Z,4.77
2022-09-28T18:26:16.754Z,5.20
2022-09-28T18:28:43.510Z,6.00
2022-09-28T18:31:12.411Z,6.67
2022-09-28T18:33:39.712Z,4.73
2022-09-28T18:36:07.426Z,5.90
2022-09-28T18:38:38.281Z,4.13
2022-09-28T18:41:16.408Z,4.47
2022-09-28T18:43:48.967Z,5.33
2022-09-28T18:46:20.388Z,6.73
2022-09-28T18:48:49.753Z,3.53
2022-09-28T18:51:16.424Z,4.23
2022-09-28T18:53:43.016Z,6.00
2022-09-28T18:56:12.950Z,5.17
2022-09-28T18:58:41.009Z,4.00
2022-09-28T19:01:29.474Z,4.53
2022-09-28T19:04:00.372Z,5.63
2022-09-28T19:06:27.935Z,5.77
2022-09-28T19:08:58.153Z,4.90
2022-09-28T19:11:25.708Z,5.77
2022-09-28T19:14:01.800Z,4.43
2022-09-28T19:16:30.732Z,5.43
2022-09-28T19:18:58.605Z,4.00
2022-09-28T19:21:26.667Z,5.23
2022-09-28T19:23:55.252Z,5.03
2022-09-28T19:26:24.592Z,13.33
2022-09-28T19:28:51.294Z,5.63
2022-09-28T19:31:18.368Z,4.93
2022-09-28T19:33:46.126Z,5.20
2022-09-28T19:36:15.769Z,6.43
2022-09-28T19:38:42.467Z,7.53
2022-09-28T19:41:10.781Z,7.93
2022-09-28T19:43:37.947Z,5.73
2022-09-28T19:46:05.946Z,8.20
2022-09-28T19:48:34.437Z,5.63
2022-09-28T19:51:06.168Z,5.43
2022-09-28T19:53:37.707Z,7.23
2022-09-28T19:56:07.582Z,5.97
2022-09-28T19:58:36.413Z,4.90
2022-09-28T20:01:08.794Z,6.67
2022-09-28T20:03:35.434Z,6.10
2022-09-28T20:06:02.575Z,5.50
2022-09-28T20:08:32.395Z,6.77
2022-09-28T20:10:59.864Z,5.67
2022-09-28T20:13:35.667Z,6.10
2022-09-28T20:16:12.607Z,5.47
2022-09-28T20:18:43.479Z,6.53
2022-09-28T20:21:18.045Z,6.53
2022-09-28T20:23:45.650Z,6.43
2022-09-28T20:26:13.400Z,5.87
2022-09-28T20:28:40.782Z,6.27
2022-09-28T20:31:12.865Z,6.87
2022-09-28T20:33:42.445Z,5.53
2022-09-28T20:36:14.706Z,6.77
2022-09-28T20:38:41.411Z,5.97
2022-09-28T20:41:10.415Z,5.63
2022-09-28T20:43:38.005Z,4.97
2022-09-28T20:46:06.888Z,5.77
2022-09-28T20:48:34.040Z,4.93
2022-09-28T20:51:03.557Z,5.43
2022-09-28T20:53:33.339Z,4.30
2022-09-28T20:56:09.990Z,5.00
2022-09-28T20:58:40.178Z,5.37
2022-09-28T21:01:10.823Z,8.23
2022-09-28T21:03:38.424Z,4.33
2022-09-28T21:06:12.053Z,5.13
2022-09-28T21:08:39.000Z,5.53
2022-09-28T21:11:07.175Z,4.47
2022-09-28T21:13:33.732Z,4.73
2022-09-28T21:16:07.044Z,4.83
2022-09-28T21:18:36.491Z,4.80
2022-09-28T21:21:06.679Z,5.13
2022-09-28T21:23:34.231Z,5.23
2022-09-28T21:26:09.135Z,7.90
2022-09-28T21:28:37.009Z,6.47
2022-09-28T21:31:06.422Z,5.33
2022-09-28T21:33:33.406Z,5.43
2022-09-28T21:36:06.252Z,5.60
2022-09-28T21:38:33.210Z,5.80
2022-09-28T21:41:00.452Z,5.30
2022-09-28T21:43:28.397Z,5.00
2022-09-28T21:45:56.497Z,5.33
2022-09-28T21:48:24.727Z,6.10
2022-09-28T21:50:58.033Z,6.13
2022-09-28T21:53:30.100Z,4.57
2022-09-28T21:55:57.767Z,4.33
2022-09-28T21:58:29.521Z,3.97
2022-09-28T22:01:05.558Z,4.80
2022-09-28T22:03:36.358Z,5.23
2022-09-28T22:06:04.971Z,4.40
2022-09-28T22:08:35.626Z,4.50
2022-09-28T22:11:08.197Z,5.17
2022-09-28T22:13:50.261Z,4.63
2022-09-28T22:16:18.930Z,6.97
2022-09-28T22:18:46.012Z,7.50
2022-09-28T22:21:19.159Z,6.07
2022-09-28T22:23:46.196Z,7.70
2022-09-28T22:26:23.282Z,7.00
2022-09-28T22:28:52.497Z,6.47
2022-09-28T22:31:21.672Z,7.43
2022-09-28T22:33:48.805Z,6.20
2022-09-28T22:36:16.586Z,6.13
2022-09-28T22:38:44.766Z,6.00
2022-09-28T22:41:16.591Z,6.03
2022-09-28T22:43:43.671Z,8.53
2022-09-28T22:46:13.516Z,6.33
2022-09-28T22:48:45.187Z,8.53
2022-09-28T22:51:11.860Z,7.57
2022-09-28T22:53:38.756Z,7.33
2022-09-28T22:56:06.048Z,6.20
2022-09-28T22:58:33.615Z,6.40
2022-09-28T23:01:27.768Z,5.40
2022-09-28T23:03:55.863Z,6.13
2022-09-28T23:06:24.736Z,7.40
2022-09-28T23:08:52.355Z,4.63
2022-09-28T23:11:19.693Z,5.10
2022-09-28T23:13:54.407Z,3.83
2022-09-28T23:16:23.365Z,4.07
2022-09-28T23:18:51.176Z,4.67
2022-09-28T23:21:20.076Z,5.07
2022-09-28T23:23:51.187Z,4.43
2022-09-28T23:26:20.353Z,5.20
2022-09-28T23:28:47.071Z,5.43
2022-09-28T23:31:25.290Z,7.27
2022-09-28T23:33:56.372Z,5.47
2022-09-28T23:36:24.835Z,5.50
2022-09-28T23:38:51.429Z,5.07
2022-09-28T23:41:18.435Z,6.97
2022-09-28T23:43:47.983Z,7.37
2022-09-28T23:46:19.777Z,6.43
2022-09-28T23:48:47.480Z,6.50
2022-09-28T23:51:14.061Z,6.57
2022-09-28T23:53:43.321Z,7.03
2022-09-28T23:56:10.390Z,6.60
2022-09-28T23:58:36.935Z,6.17
